Pays
Station

 

Conditions  météo  pour  Skjaldthingsstadir  -  Islande    Islande

  
10 °C
    
 
 

METAR pour Skjaldthingsstadir :

BIVO 301132Z 04019KT 3000 VCFG SCT003 SCT005 BKN030 10/10 Q1018

 

Voici le bulletin pour Skjaldthingsstadir - Islande.
 
Le bulletin a été fait il y a 583 heures et 57 minutes, à 11:32 UTC .
Le vent soufflait à la vitesse de 9.8 mètres par seconde de Nord-est (040°).
 
La température était de 10 °C, avec un point de rosée à 10 °C.
La pression atmosphérique était de 1018 hPa.
L'humidité relative était de 100.0%.
 
Il y avait 3 à 4/8ème de nébulosité à une hauteur de 91 mètres, 3 à 4/8ème de nébulosité à une hauteur de 152 mètres et 5 à 7/8ème de nébulosité à une hauteur de 914 mètres.
 
La visibilité globale était de 3000 mètres.
 
Actuellement brouillard à proximité.

 
 
 

Pays :   A   B   C   D   E   F   G   H   I   J   K   L   M   N   O   P   Q   R   S   T   U   V   W   Y   Z

 

Partenaires :  Info Météo avec Met'info
Météo Marine avec MeteoMarine.net
Infos Site  |  Infos Légales  |  Crédits  |  Confidentialité
Contactez-nous  |  Ajouter aux favoris
© 2013-2019 METAR - Tous droits réservés